Time;durP1;ratioP1;P1;durP2;ratioP2;P2;SDS_P1;SDS_P2;PMS_P1;PMS_P2;Temp;Humidity;BMP_temperature;BMP_pressure;BME280_temperature;BME280_humidity;BME280_pressure;Samples;Min_cycle;Max_cycle;Signal;HPM_P1;HPM_P2
2023/12/17 00:00:23;;;;;;;11.02;5.70;;;0.40;99.90;;;;;;4892833;29;20037;-65
2023/12/17 00:02:50;;;;;;;11.80;5.90;;;0.40;99.90;;;;;;4897630;29;20553;-65
2023/12/17 00:05:36;;;;;;;10.73;5.88;;;0.40;99.90;;;;;;4894083;29;20045;-65
2023/12/17 00:08:03;;;;;;;13.10;5.38;;;0.40;99.90;;;;;;4893770;29;20053;-65
2023/12/17 00:10:30;;;;;;;9.68;5.97;;;0.40;99.90;;;;;;4894793;29;20057;-65
2023/12/17 00:12:57;;;;;;;9.10;5.22;;;0.40;99.90;;;;;;4897351;29;20045;-65
2023/12/17 00:15:24;;;;;;;10.80;5.45;;;0.40;99.90;;;;;;4894408;29;20131;-65
2023/12/17 00:17:50;;;;;;;9.50;5.35;;;0.40;99.90;;;;;;4888722;29;20067;-65
2023/12/17 00:20:17;;;;;;;11.07;5.85;;;0.40;99.90;;;;;;4894009;29;20128;-65
2023/12/17 00:22:44;;;;;;;9.65;6.00;;;0.40;99.90;;;;;;4898629;29;20449;-65
2023/12/17 00:25:11;;;;;;;8.45;4.97;;;0.40;99.90;;;;;;4896905;29;20048;-65
2023/12/17 00:27:38;;;;;;;11.13;5.43;;;0.40;99.90;;;;;;4897255;29;20049;-65
2023/12/17 00:30:05;;;;;;;12.02;6.35;;;0.40;99.90;;;;;;4891716;29;20132;-65
2023/12/17 00:32:32;;;;;;;9.15;5.40;;;0.40;99.90;;;;;;4897957;29;20139;-65
2023/12/17 00:34:59;;;;;;;11.70;6.57;;;0.40;99.90;;;;;;4891524;29;20154;-65
2023/12/17 00:37:26;;;;;;;10.00;5.70;;;0.40;99.90;;;;;;4892444;29;20048;-65
2023/12/17 00:39:53;;;;;;;9.57;5.05;;;0.40;99.90;;;;;;4890582;29;20059;-65
2023/12/17 00:42:20;;;;;;;10.38;4.95;;;0.30;99.90;;;;;;4886041;29;20059;-65
2023/12/17 00:44:47;;;;;;;8.85;4.95;;;0.40;99.90;;;;;;4891075;29;20119;-65
2023/12/17 00:47:14;;;;;;;11.93;5.05;;;0.50;99.90;;;;;;4892572;29;20045;-65
2023/12/17 00:49:40;;;;;;;11.85;5.28;;;0.50;99.90;;;;;;4896718;29;20052;-65
2023/12/17 00:52:07;;;;;;;11.60;5.80;;;0.50;99.90;;;;;;4892277;29;20498;-65
2023/12/17 00:54:34;;;;;;;8.82;4.97;;;0.60;99.90;;;;;;4897577;29;20036;-65
2023/12/17 00:57:01;;;;;;;8.55;4.90;;;0.60;99.90;;;;;;4896530;29;20125;-65
2023/12/17 00:59:28;;;;;;;8.68;4.95;;;0.60;99.90;;;;;;4896574;29;20068;-65
2023/12/17 01:01:54;;;;;;;10.50;5.22;;;0.50;99.90;;;;;;4897166;29;20036;-65
2023/12/17 01:04:21;;;;;;;9.02;5.18;;;0.50;99.90;;;;;;4894871;29;20037;-65
2023/12/17 01:06:48;;;;;;;10.07;5.35;;;0.40;99.90;;;;;;4893543;29;20045;-65
2023/12/17 01:09:15;;;;;;;10.55;4.97;;;0.40;99.90;;;;;;4899995;29;20052;-65
2023/12/17 01:11:42;;;;;;;11.90;5.72;;;0.30;99.90;;;;;;4892621;29;20494;-65
2023/12/17 01:14:09;;;;;;;11.15;5.43;;;0.30;99.90;;;;;;4898485;29;20115;-65
2023/12/17 01:16:36;;;;;;;11.50;5.43;;;0.30;99.90;;;;;;4897787;29;20040;-65
2023/12/17 01:19:03;;;;;;;8.65;4.72;;;0.30;99.90;;;;;;4899931;29;20046;-65
2023/12/17 01:21:30;;;;;;;9.18;5.63;;;0.30;99.90;;;;;;4893056;29;20051;-65
2023/12/17 01:23:58;;;;;;;9.80;5.43;;;0.30;99.90;;;;;;4904543;29;20486;-65
2023/12/17 01:26:29;;;;;;;9.15;5.18;;;0.30;99.90;;;;;;4889833;29;20041;-65
2023/12/17 01:28:56;;;;;;;10.63;5.35;;;0.30;99.90;;;;;;4893196;29;20051;-65
2023/12/17 01:31:23;;;;;;;13.52;6.53;;;0.20;99.90;;;;;;4891349;29;20409;-65
2023/12/17 01:33:50;;;;;;;10.68;5.57;;;0.20;99.90;;;;;;4893930;29;20498;-65
2023/12/17 01:36:17;;;;;;;7.28;5.03;;;0.20;99.90;;;;;;4895724;29;20047;-65
2023/12/17 01:38:44;;;;;;;9.50;5.80;;;0.20;99.90;;;;;;4896454;29;20068;-65
2023/12/17 01:41:11;;;;;;;9.98;6.00;;;0.10;99.90;;;;;;4895305;29;21630;-65
2023/12/17 01:43:37;;;;;;;11.30;6.65;;;0.10;99.90;;;;;;4897195;29;20482;-64
2023/12/17 01:46:05;;;;;;;11.23;5.82;;;0.10;99.90;;;;;;4895569;29;20090;-65
2023/12/17 01:48:32;;;;;;;10.77;5.90;;;0.10;99.90;;;;;;4891398;29;20139;-65
2023/12/17 01:50:59;;;;;;;;;;;0.10;99.90;;;;;;4896911;29;20471;-65
2023/12/17 01:53:27;;;;;;;12.23;6.28;;;0.10;99.90;;;;;;4889967;29;19923;-65
2023/12/17 01:55:54;;;;;;;9.10;5.80;;;0.10;99.90;;;;;;4895447;29;20044;-65
2023/12/17 01:58:21;;;;;;;10.57;6.18;;;0.00;99.90;;;;;;4896133;29;20135;-65
2023/12/17 02:00:49;;;;;;;10.57;5.93;;;0.00;99.90;;;;;;4896369;29;20045;-65
2023/12/17 02:03:16;;;;;;;12.52;5.65;;;0.00;99.90;;;;;;4891071;29;20036;-65
2023/12/17 02:05:46;;;;;;;11.93;6.03;;;0.00;99.90;;;;;;4896066;29;20044;-65
2023/12/17 02:08:13;;;;;;;9.25;5.30;;;0.00;99.90;;;;;;4895967;29;20048;-65
2023/12/17 02:10:40;;;;;;;9.45;5.05;;;0.10;99.90;;;;;;4889651;29;20072;-65
2023/12/17 02:13:10;;;;;;;8.57;5.28;;;0.10;99.90;;;;;;4897894;29;20059;-65
2023/12/17 02:15:37;;;;;;;9.07;4.53;;;0.10;99.90;;;;;;4898755;29;20052;-65
2023/12/17 02:18:04;;;;;;;;;;;0.20;99.90;;;;;;4896366;29;20091;-64
2023/12/17 02:20:34;;;;;;;10.65;4.57;;;0.20;99.90;;;;;;4894197;29;19966;-65
2023/12/17 02:23:05;;;;;;;9.60;4.80;;;0.20;99.90;;;;;;4896095;29;20096;-65
2023/12/17 02:25:32;;;;;;;7.45;4.10;;;0.20;99.90;;;;;;4895569;29;20128;-65
2023/12/17 02:27:59;;;;;;;9.15;4.53;;;0.20;99.90;;;;;;4892116;29;20394;-65
2023/12/17 02:30:26;;;;;;;7.65;4.25;;;0.20;99.90;;;;;;4895982;29;20401;-65
2023/12/17 02:32:53;;;;;;;7.45;4.22;;;0.20;99.90;;;;;;4895691;29;20054;-65
2023/12/17 02:35:21;;;;;;;;;;;0.20;99.90;;;;;;4895703;29;20045;-65
2023/12/17 02:37:49;;;;;;;6.15;3.65;;;0.20;99.90;;;;;;4894228;29;20361;-65
2023/12/17 02:40:16;;;;;;;8.07;4.25;;;0.20;99.90;;;;;;4901361;29;20401;-65
2023/12/17 02:42:43;;;;;;;10.38;4.25;;;0.10;99.90;;;;;;4896051;29;20056;-65
2023/12/17 02:45:11;;;;;;;6.70;3.88;;;0.10;99.90;;;;;;4892940;29;20145;-65
2023/12/17 02:47:38;;;;;;;9.88;4.63;;;0.10;99.90;;;;;;4878958;29;20045;-65
2023/12/17 02:50:05;;;;;;;6.63;3.88;;;0.00;99.90;;;;;;4886881;29;20136;-65
2023/12/17 02:52:32;;;;;;;8.05;4.50;;;0.00;99.90;;;;;;4888232;29;20115;-65
2023/12/17 02:54:59;;;;;;;5.88;3.13;;;0.00;99.90;;;;;;4895354;29;20048;-65
2023/12/17 02:57:26;;;;;;;8.52;4.13;;;0.00;99.90;;;;;;4895308;29;20045;-65
2023/12/17 02:59:54;;;;;;;13.07;6.50;;;0.00;99.90;;;;;;4893506;29;20048;-65
2023/12/17 03:02:21;;;;;;;12.60;6.13;;;-0.10;99.90;;;;;;4884740;29;20078;-65
2023/12/17 03:04:48;;;;;;;13.40;6.03;;;-0.10;99.90;;;;;;4891310;29;20077;-65
2023/12/17 03:07:15;;;;;;;9.25;5.10;;;-0.10;99.90;;;;;;4895577;29;20052;-65
2023/12/17 03:09:41;;;;;;;10.73;5.25;;;-0.10;99.90;;;;;;4896072;29;20048;-65
2023/12/17 03:12:08;;;;;;;9.18;4.72;;;-0.10;99.90;;;;;;4893475;29;20115;-65
2023/12/17 03:14:35;;;;;;;7.30;4.30;;;-0.10;99.90;;;;;;4881154;29;20124;-65
2023/12/17 03:17:02;;;;;;;9.70;3.90;;;-0.10;99.90;;;;;;4898956;29;20052;-65
2023/12/17 03:19:29;;;;;;;10.68;4.90;;;0.00;99.90;;;;;;4900371;29;20047;-65
2023/12/17 03:21:56;;;;;;;6.68;4.28;;;0.00;99.90;;;;;;4902988;29;20111;-65
2023/12/17 03:24:22;;;;;;;7.43;4.15;;;0.00;99.90;;;;;;4882041;29;20059;-65
2023/12/17 03:26:49;;;;;;;9.02;4.85;;;0.00;99.90;;;;;;4891163;29;20044;-65
2023/12/17 03:29:16;;;;;;;8.73;5.07;;;0.00;99.90;;;;;;4883506;29;20073;-65
2023/12/17 03:31:43;;;;;;;8.45;4.90;;;-0.10;99.90;;;;;;4883369;29;20076;-65
2023/12/17 03:34:10;;;;;;;7.82;4.57;;;-0.10;99.90;;;;;;4889149;29;20178;-65
2023/12/17 03:36:37;;;;;;;12.63;5.80;;;-0.10;99.90;;;;;;4880261;29;20063;-65
2023/12/17 03:39:05;;;;;;;9.77;4.70;;;-0.10;99.90;;;;;;4881553;29;20099;-67
2023/12/17 03:41:32;;;;;;;12.07;5.75;;;-0.10;99.90;;;;;;4879595;29;20525;-65
2023/12/17 03:43:59;;;;;;;14.25;5.32;;;-0.10;99.90;;;;;;4872736;29;20040;-65
2023/12/17 03:46:26;;;;;;;13.38;6.20;;;-0.20;99.90;;;;;;4885428;29;20128;-65
2023/12/17 03:48:53;;;;;;;9.75;5.20;;;-0.20;99.90;;;;;;4884214;29;20060;-65
2023/12/17 03:51:20;;;;;;;6.47;4.15;;;-0.20;99.90;;;;;;4880285;29;20108;-65
2023/12/17 03:53:47;;;;;;;10.65;4.07;;;-0.20;99.90;;;;;;4877554;29;20044;-65
2023/12/17 03:56:16;;;;;;;5.68;3.30;;;-0.20;99.90;;;;;;4886200;29;20037;-64
2023/12/17 03:58:43;;;;;;;8.80;4.00;;;-0.10;99.90;;;;;;4884078;29;20135;-65
2023/12/17 04:01:10;;;;;;;7.82;3.58;;;-0.10;99.90;;;;;;4881469;29;20103;-65
2023/12/17 04:03:37;;;;;;;6.15;3.63;;;0.00;99.90;;;;;;4890376;29;20055;-65
2023/12/17 04:06:05;;;;;;;;;;;0.00;99.90;;;;;;4881295;29;21732;-65
2023/12/17 04:08:33;;;;;;;8.65;4.07;;;0.00;99.90;;;;;;4888335;29;19931;-65
2023/12/17 04:11:00;;;;;;;9.60;3.95;;;-0.10;99.90;;;;;;4883081;29;20059;-65
2023/12/17 04:13:27;;;;;;;7.68;3.97;;;-0.10;99.90;;;;;;4882476;29;20059;-65
2023/12/17 04:15:53;;;;;;;8.18;4.30;;;-0.10;99.90;;;;;;4879899;29;20051;-65
2023/12/17 04:18:20;;;;;;;8.23;3.90;;;-0.10;99.90;;;;;;4867491;29;20041;-65
2023/12/17 04:20:47;;;;;;;;;;;-0.10;99.90;;;;;;4879220;29;20391;-65
2023/12/17 04:23:15;;;;;;;8.40;4.10;;;-0.10;99.90;;;;;;4879484;29;22496;-65
2023/12/17 04:25:41;;;;;;;8.90;4.93;;;-0.10;99.90;;;;;;4878696;29;20047;-65
2023/12/17 04:28:08;;;;;;;8.15;4.25;;;-0.10;99.90;;;;;;4882470;29;20052;-65
2023/12/17 04:30:35;;;;;;;7.50;4.10;;;-0.10;99.90;;;;;;4883817;29;20060;-65
2023/12/17 04:33:02;;;;;;;12.48;4.43;;;-0.10;99.90;;;;;;4884235;29;20052;-65
2023/12/17 04:35:29;;;;;;;8.50;4.85;;;-0.10;99.90;;;;;;4897425;29;20045;-65
2023/12/17 04:37:56;;;;;;;9.90;4.80;;;-0.10;99.90;;;;;;4897488;29;20036;-65
2023/12/17 04:40:23;;;;;;;10.00;5.30;;;-0.20;99.90;;;;;;4897690;29;20051;-65
2023/12/17 04:42:50;;;;;;;9.07;4.05;;;-0.20;99.90;;;;;;4890629;29;20044;-65
2023/12/17 04:45:17;;;;;;;7.38;4.25;;;-0.10;99.90;;;;;;4890288;29;20076;-65
2023/12/17 04:47:44;;;;;;;9.82;4.00;;;-0.10;99.90;;;;;;4894012;29;20045;-65
2023/12/17 04:50:11;;;;;;;8.68;4.00;;;-0.10;99.90;;;;;;4894760;29;20052;-65
2023/12/17 04:52:38;;;;;;;11.68;4.32;;;-0.10;99.90;;;;;;4896960;29;20062;-65
2023/12/17 04:55:05;;;;;;;9.68;4.63;;;-0.10;99.90;;;;;;4897062;29;20506;-65
2023/12/17 04:57:32;;;;;;;5.80;3.95;;;-0.10;99.90;;;;;;4890553;29;20037;-65
2023/12/17 05:00:01;;;;;;;10.60;4.35;;;-0.10;99.90;;;;;;4897408;29;20128;-65
2023/12/17 05:02:28;;;;;;;8.25;4.30;;;-0.10;99.90;;;;;;4897547;29;20044;-65
2023/12/17 05:04:55;;;;;;;6.20;3.72;;;-0.20;99.90;;;;;;4897103;29;20033;-65
2023/12/17 05:07:22;;;;;;;9.30;4.00;;;-0.20;99.90;;;;;;4889851;29;20116;-65
2023/12/17 05:09:48;;;;;;;8.02;4.43;;;-0.20;99.90;;;;;;4897309;29;20128;-65
2023/12/17 05:12:15;;;;;;;15.95;5.32;;;-0.20;99.90;;;;;;4897091;29;20057;-65
2023/12/17 05:14:42;;;;;;;10.68;4.85;;;-0.30;99.90;;;;;;4896867;29;20411;-65
2023/12/17 05:17:09;;;;;;;12.48;4.10;;;-0.30;99.90;;;;;;4886573;29;20403;-65
2023/12/17 05:19:36;;;;;;;8.82;5.40;;;-0.30;99.90;;;;;;4897082;29;20040;-65
2023/12/17 05:22:03;;;;;;;7.65;3.88;;;-0.30;99.90;;;;;;4896515;29;20056;-65
2023/12/17 05:24:30;;;;;;;7.13;3.80;;;-0.30;99.90;;;;;;4896655;29;20036;-65
2023/12/17 05:26:57;;;;;;;9.43;4.15;;;-0.30;99.90;;;;;;4895107;29;20490;-65
2023/12/17 05:29:24;;;;;;;8.40;4.20;;;-0.20;99.90;;;;;;4880106;29;20052;-65
2023/12/17 05:31:50;;;;;;;8.68;4.50;;;-0.20;99.90;;;;;;4896388;29;20132;-65
2023/12/17 05:34:17;;;;;;;8.32;3.60;;;-0.20;99.90;;;;;;4890809;29;20049;-65
2023/12/17 05:36:44;;;;;;;7.57;4.13;;;-0.20;99.90;;;;;;4893850;29;20052;-65
2023/12/17 05:39:11;;;;;;;6.47;3.80;;;-0.30;99.90;;;;;;4886701;29;20550;-65
2023/12/17 05:41:38;;;;;;;6.45;3.80;;;-0.20;99.90;;;;;;4896031;29;20100;-65
2023/12/17 05:44:04;;;;;;;8.00;3.92;;;-0.30;99.90;;;;;;4889363;29;20132;-65
2023/12/17 05:46:31;;;;;;;9.48;4.50;;;-0.30;99.90;;;;;;4895705;29;20052;-65
2023/12/17 05:48:58;;;;;;;8.95;4.50;;;-0.30;99.90;;;;;;4890662;29;20045;-65
2023/12/17 05:51:25;;;;;;;9.57;4.38;;;-0.30;99.90;;;;;;4895174;29;20653;-65
2023/12/17 05:53:52;;;;;;;8.90;4.55;;;-0.30;99.90;;;;;;4890095;29;20037;-65
2023/12/17 05:56:19;;;;;;;7.30;4.45;;;-0.30;99.90;;;;;;4890192;29;20406;-65
2023/12/17 05:58:46;;;;;;;10.55;4.38;;;-0.30;99.90;;;;;;4888535;29;20072;-65
2023/12/17 06:01:13;;;;;;;8.18;5.03;;;-0.30;99.90;;;;;;4902516;29;20434;-65
2023/12/17 06:03:40;;;;;;;10.88;4.85;;;-0.30;99.90;;;;;;4888024;29;20483;-65
2023/12/17 06:06:07;;;;;;;12.13;4.30;;;-0.40;99.90;;;;;;4888861;29;20155;-65
2023/12/17 06:08:35;;;;;;;8.93;3.83;;;-0.40;99.90;;;;;;4895771;29;20037;-65
2023/12/17 06:11:01;;;;;;;8.93;4.30;;;-0.40;99.90;;;;;;4895506;29;20119;-65
2023/12/17 06:13:28;;;;;;;11.52;4.72;;;-0.40;99.90;;;;;;4897893;29;20040;-65
2023/12/17 06:15:55;;;;;;;;;;;-0.40;99.90;;;;;;4895759;29;20074;-65
2023/12/17 06:18:23;;;;;;;8.45;4.13;;;-0.40;99.90;;;;;;4888006;29;20444;-65
2023/12/17 06:20:50;;;;;;;9.05;4.90;;;-0.40;99.90;;;;;;4889388;29;20132;-65
2023/12/17 06:23:17;;;;;;;7.43;4.07;;;-0.40;99.90;;;;;;4879270;29;20517;-65
2023/12/17 06:25:43;;;;;;;12.85;5.78;;;-0.30;99.90;;;;;;4895121;29;20103;-65
2023/12/17 06:28:10;;;;;;;8.85;4.55;;;-0.40;99.90;;;;;;4889450;29;20048;-65
2023/12/17 06:30:37;;;;;;;7.80;4.50;;;-0.30;99.90;;;;;;4878732;29;20135;-65
2023/12/17 06:33:04;;;;;;;13.20;5.57;;;-0.30;99.90;;;;;;4895517;29;20056;-65
2023/12/17 06:35:31;;;;;;;10.93;5.53;;;-0.30;99.90;;;;;;4896051;29;20033;-65
2023/12/17 06:37:58;;;;;;;12.52;5.60;;;-0.40;99.90;;;;;;4895240;29;20071;-65
2023/12/17 06:40:25;;;;;;;10.55;5.60;;;-0.40;99.90;;;;;;4894697;29;20087;-65
2023/12/17 06:42:52;;;;;;;10.57;5.32;;;-0.30;99.90;;;;;;4889819;29;20049;-65
2023/12/17 06:45:20;;;;;;;11.40;5.25;;;-0.30;99.90;;;;;;4895372;29;20045;-65
2023/12/17 06:47:47;;;;;;;9.77;4.75;;;-0.40;99.90;;;;;;4896058;29;20054;-65
2023/12/17 06:50:14;;;;;;;9.00;5.03;;;-0.30;99.90;;;;;;4899236;29;20072;-65
2023/12/17 06:52:41;;;;;;;11.07;5.30;;;-0.40;99.90;;;;;;4898365;29;20036;-65
2023/12/17 06:55:08;;;;;;;9.80;5.18;;;-0.40;99.90;;;;;;4894858;29;20478;-65
2023/12/17 06:57:35;;;;;;;12.75;6.10;;;-0.40;99.90;;;;;;4897068;29;20127;-65
2023/12/17 07:00:02;;;;;;;10.82;5.60;;;-0.40;99.90;;;;;;4899696;29;20047;-65
2023/12/17 07:02:29;;;;;;;7.97;4.22;;;-0.40;99.90;;;;;;4898603;29;20059;-65
2023/12/17 07:04:56;;;;;;;8.05;4.50;;;-0.40;99.90;;;;;;4899344;29;20077;-65
2023/12/17 07:07:24;;;;;;;10.43;4.40;;;-0.40;99.90;;;;;;4896008;29;20086;-65
2023/12/17 07:09:53;;;;;;;17.70;5.22;;;-0.30;99.90;;;;;;4899590;29;20458;-65
2023/12/17 07:12:20;;;;;;;9.55;4.90;;;-0.30;99.90;;;;;;4898803;29;20064;-65
2023/12/17 07:14:47;;;;;;;8.13;4.25;;;-0.30;99.90;;;;;;4891474;29;20044;-65
2023/12/17 07:17:14;;;;;;;12.15;5.63;;;-0.30;99.90;;;;;;4896454;29;20127;-65
2023/12/17 07:19:40;;;;;;;18.10;6.78;;;-0.20;99.90;;;;;;4899268;29;20054;-65
2023/12/17 07:22:07;;;;;;;14.15;7.18;;;-0.20;99.90;;;;;;4898884;29;20053;-65
2023/12/17 07:24:34;;;;;;;17.45;6.95;;;-0.20;99.90;;;;;;4898796;29;20053;-65
2023/12/17 07:27:01;;;;;;;10.90;5.65;;;-0.10;99.90;;;;;;4895585;29;20055;-65
2023/12/17 07:29:28;;;;;;;8.02;4.45;;;-0.10;99.90;;;;;;4899000;29;20048;-65
2023/12/17 07:31:55;;;;;;;10.07;4.53;;;-0.10;99.90;;;;;;4898715;29;20052;-65
2023/12/17 07:34:22;;;;;;;7.60;4.40;;;0.00;99.90;;;;;;4894555;29;20502;-65
2023/12/17 07:36:49;;;;;;;6.63;4.15;;;0.00;99.90;;;;;;4898682;29;20041;-65
2023/12/17 07:39:18;;;;;;;9.10;4.65;;;0.10;99.90;;;;;;4892885;29;20122;-65
2023/12/17 07:41:45;;;;;;;11.15;5.13;;;0.10;99.90;;;;;;4888764;29;20049;-65
2023/12/17 07:44:12;;;;;;;;;;;0.10;99.90;;;;;;4898113;29;20080;-65
2023/12/17 07:46:39;;;;;;;9.63;5.40;;;0.10;99.90;;;;;;4897435;29;19927;-65
2023/12/17 07:49:06;;;;;;;9.20;4.65;;;0.10;99.90;;;;;;4895106;29;20554;-65
2023/12/17 07:51:34;;;;;;;11.35;4.75;;;0.10;99.90;;;;;;4895209;29;20049;-65
2023/12/17 07:54:01;;;;;;;16.48;8.25;;;0.10;99.90;;;;;;4887591;29;20056;-65
2023/12/17 07:56:28;;;;;;;11.82;6.55;;;0.00;99.90;;;;;;4899913;29;20495;-65
2023/12/17 07:58:55;;;;;;;9.80;5.43;;;0.00;99.90;;;;;;4898472;29;20065;-65
2023/12/17 08:01:29;;;;;;;10.10;5.22;;;0.00;99.90;;;;;;4896691;29;20040;-65
2023/12/17 08:03:56;;;;;;;10.95;5.18;;;0.00;99.90;;;;;;4883345;29;20112;-65
2023/12/17 08:06:24;;;;;;;;;;;0.10;99.90;;;;;;4898765;29;20059;-65
2023/12/17 08:08:52;;;;;;;18.75;7.07;;;0.10;99.90;;;;;;4888895;29;20407;-65
2023/12/17 08:11:19;;;;;;;12.10;4.97;;;0.10;99.90;;;;;;4893994;29;20100;-65
2023/12/17 08:13:46;;;;;;;8.20;5.07;;;0.10;99.90;;;;;;4897734;29;20103;-65
2023/12/17 08:16:13;;;;;;;10.77;4.93;;;0.10;99.90;;;;;;4902156;29;20119;-65
2023/12/17 08:18:40;;;;;;;9.68;4.60;;;0.10;99.90;;;;;;4892734;29;20048;-65
2023/12/17 08:21:07;;;;;;;;;;;0.10;99.90;;;;;;4897961;29;20102;-65
2023/12/17 08:23:34;;;;;;;9.85;4.80;;;0.10;99.90;;;;;;4894358;29;19930;-65
2023/12/17 08:26:01;;;;;;;9.43;5.25;;;0.20;99.90;;;;;;4897850;29;20040;-65
2023/12/17 08:28:28;;;;;;;11.45;6.70;;;0.20;99.90;;;;;;4897513;29;20056;-65
2023/12/17 08:30:55;;;;;;;15.73;6.00;;;0.30;99.90;;;;;;4897385;29;20064;-65
2023/12/17 08:33:22;;;;;;;13.88;5.97;;;0.30;99.90;;;;;;4890200;29;20156;-64
2023/12/17 08:35:49;;;;;;;10.70;6.20;;;0.30;99.90;;;;;;4897629;29;20438;-65
2023/12/17 08:38:15;;;;;;;13.30;7.50;;;0.40;99.90;;;;;;4897639;29;20119;-65
2023/12/17 08:40:46;;;;;;;13.13;6.65;;;0.50;99.90;;;;;;4879048;29;20048;-65
2023/12/17 08:43:12;;;;;;;15.60;7.05;;;0.50;99.90;;;;;;4879602;29;20454;-65
2023/12/17 08:45:39;;;;;;;12.48;7.18;;;0.60;99.90;;;;;;4880307;29;20052;-65
2023/12/17 08:48:06;;;;;;;12.68;6.85;;;0.80;99.90;;;;;;4897710;29;20406;-65
2023/12/17 08:50:33;;;;;;;11.45;5.75;;;0.90;99.90;;;;;;4897575;29;20087;-65
2023/12/17 08:53:00;;;;;;;10.55;5.80;;;0.90;99.90;;;;;;4892534;29;20037;-65
2023/12/17 08:55:27;;;;;;;11.68;7.35;;;0.90;99.90;;;;;;4896700;29;20049;-64
2023/12/17 08:57:54;;;;;;;16.70;7.72;;;0.90;99.90;;;;;;4897306;29;20119;-63
2023/12/17 09:00:21;;;;;;;16.90;8.32;;;1.00;99.90;;;;;;4878424;29;20048;-65
2023/12/17 09:02:48;;;;;;;9.57;5.45;;;1.10;99.90;;;;;;4896147;29;20075;-65
2023/12/17 09:05:14;;;;;;;11.35;6.50;;;1.10;99.90;;;;;;4896839;29;20049;-65
2023/12/17 09:07:42;;;;;;;13.48;5.70;;;1.20;99.90;;;;;;4897042;29;20051;-66
2023/12/17 09:10:09;;;;;;;11.98;5.35;;;1.30;99.90;;;;;;4891717;29;20048;-65
2023/12/17 09:12:36;;;;;;;15.30;6.13;;;1.40;99.90;;;;;;4896125;29;20044;-65
2023/12/17 09:15:03;;;;;;;11.23;6.28;;;1.50;99.90;;;;;;4890881;29;20055;-65
2023/12/17 09:17:29;;;;;;;;;;;1.50;99.90;;;;;;4897745;29;20521;-65
2023/12/17 09:19:56;;;;;;;9.27;5.20;;;1.50;99.90;;;;;;4895179;29;19923;-65
2023/12/17 09:22:23;;;;;;;9.60;5.45;;;1.60;99.90;;;;;;4895352;29;20111;-65
2023/12/17 09:24:50;;;;;;;10.43;6.32;;;1.70;99.90;;;;;;4895373;29;20064;-64
2023/12/17 09:27:17;;;;;;;10.25;5.80;;;1.80;99.90;;;;;;4879590;29;20062;-65
2023/12/17 09:29:44;;;;;;;12.57;7.95;;;1.90;99.90;;;;;;4877994;29;20057;-65
2023/12/17 09:32:11;;;;;;;13.10;7.60;;;2.00;99.90;;;;;;4903237;29;20434;-65
2023/12/17 09:34:38;;;;;;;7.93;4.35;;;2.10;99.90;;;;;;4877386;29;20257;-69
2023/12/17 09:37:04;;;;;;;8.30;4.95;;;2.20;99.90;;;;;;4878638;29;20529;-65
2023/12/17 09:39:31;;;;;;;9.68;3.95;;;2.20;99.90;;;;;;4893554;29;20059;-65
2023/12/17 09:41:58;;;;;;;11.40;5.90;;;2.40;99.90;;;;;;4892690;29;20044;-66
2023/12/17 09:44:26;;;;;;;14.38;6.72;;;2.40;99.90;;;;;;4885785;29;20063;-65
2023/12/17 09:46:53;;;;;;;12.25;5.93;;;2.40;99.90;;;;;;4894592;29;20063;-65
2023/12/17 09:49:20;;;;;;;14.68;5.95;;;2.30;99.90;;;;;;4893289;29;20049;-65
2023/12/17 09:51:58;;;;;;;9.70;5.78;;;2.20;99.90;;;;;;4895348;29;20532;-65
2023/12/17 09:54:25;;;;;;;12.95;5.53;;;2.10;99.90;;;;;;4892276;29;20045;-65
2023/12/17 09:56:53;;;;;;;14.43;6.97;;;2.20;99.90;;;;;;4894317;29;20044;-65
2023/12/17 09:59:21;;;;;;;10.35;5.68;;;2.30;99.90;;;;;;4889788;29;20128;-65
2023/12/17 10:01:48;;;;;;;12.32;5.95;;;2.30;99.90;;;;;;4890394;29;20413;-65
2023/12/17 10:04:20;;;;;;;11.27;5.55;;;2.40;99.90;;;;;;4894037;29;20045;-65
2023/12/17 10:06:47;;;;;;;7.72;4.50;;;2.60;99.90;;;;;;4891467;29;20382;-65
2023/12/17 10:09:15;;;;;;;11.20;4.40;;;2.60;99.90;;;;;;4896734;29;20056;-65
2023/12/17 10:11:42;;;;;;;8.88;3.92;;;2.70;99.90;;;;;;4894334;29;20506;-65
2023/12/17 10:21:08;;;;;;;;;;;;;;;;;;;;;
2023/12/17 10:24:04;;;;;;;6.07;2.88;;;3.10;99.90;;;;;;4909729;29;20039;-65
2023/12/17 10:26:48;;;;;;;7.43;2.35;;;3.10;99.90;;;;;;4922549;29;20445;-65
2023/12/17 10:29:16;;;;;;;5.93;3.20;;;3.20;99.90;;;;;;4908075;29;20052;-65
2023/12/17 10:31:45;;;;;;;7.93;3.85;;;3.30;99.90;;;;;;4912515;29;20036;-65
2023/12/17 10:34:22;;;;;;;9.35;4.80;;;3.30;99.90;;;;;;4918074;29;20075;-65
2023/12/17 10:36:50;;;;;;;;;;;3.40;99.90;;;;;;4912473;29;20057;-65
2023/12/17 10:39:19;;;;;;;5.88;2.88;;;3.50;99.90;;;;;;4910109;29;19923;-65
2023/12/17 10:41:53;;;;;;;5.70;2.53;;;3.60;99.90;;;;;;4916385;29;20123;-66
2023/12/17 10:44:23;;;;;;;3.50;2.22;;;3.70;99.90;;;;;;4913219;29;20047;-65
2023/12/17 10:46:53;;;;;;;4.15;2.13;;;3.80;99.90;;;;;;4914610;29;20048;-65
2023/12/17 10:49:21;;;;;;;5.28;2.92;;;3.90;99.90;;;;;;4912637;29;20383;-66
2023/12/17 10:51:48;;;;;;;10.75;3.72;;;3.90;99.90;;;;;;4920648;29;20128;-65
2023/12/17 10:54:15;;;;;;;;;;;3.80;99.90;;;;;;4916687;29;20048;-65
2023/12/17 10:56:47;;;;;;;6.00;3.28;;;3.80;99.90;;;;;;4910551;29;19965;-65
2023/12/17 10:59:18;;;;;;;4.15;2.35;;;3.70;99.90;;;;;;4916485;29;20540;-65
2023/12/17 11:02:01;;;;;;;7.70;2.75;;;3.80;99.90;;;;;;4914600;29;20482;-65
2023/12/17 11:04:28;;;;;;;8.27;3.20;;;3.70;99.90;;;;;;4913638;29;20052;-66
2023/12/17 11:06:55;;;;;;;3.95;2.20;;;3.70;99.90;;;;;;4915083;29;20042;-65
2023/12/17 11:09:22;;;;;;;4.97;2.55;;;3.80;99.90;;;;;;4915393;29;20048;-66
2023/12/17 11:11:51;;;;;;;4.45;2.42;;;3.80;99.90;;;;;;4915994;29;20050;-65
2023/12/17 11:14:18;;;;;;;9.13;3.08;;;3.90;99.90;;;;;;4907186;29;20086;-65
2023/12/17 11:16:45;;;;;;;6.60;3.42;;;3.90;99.90;;;;;;4916700;29;20047;-65
2023/12/17 11:19:12;;;;;;;7.07;3.38;;;3.90;99.90;;;;;;4913010;29;20036;-65
2023/12/17 11:21:41;;;;;;;;;;;3.90;99.90;;;;;;4913082;29;20044;-65
2023/12/17 11:24:08;;;;;;;;;;;4.00;99.90;;;;;;4916760;29;19929;-64
2023/12/17 11:26:40;;;;;;;7.43;3.17;;;4.10;99.90;;;;;;4916062;29;20389;-65
2023/12/17 11:29:31;;;;;;;6.13;2.70;;;4.10;99.90;;;;;;4912208;29;20040;-66
2023/12/17 11:31:59;;;;;;;10.02;3.88;;;4.30;99.90;;;;;;4910248;29;20044;-65
2023/12/17 11:34:27;;;;;;;7.63;2.85;;;4.30;99.90;;;;;;4909631;29;20123;-65
2023/12/17 11:36:54;;;;;;;8.35;3.70;;;4.30;99.90;;;;;;4911057;29;20044;-66
2023/12/17 11:39:21;;;;;;;;;;;4.40;99.90;;;;;;4917289;29;20140;-65
2023/12/17 11:41:48;;;;;;;8.18;4.68;;;4.40;99.90;;;;;;4913474;29;19934;-65
2023/12/17 11:44:14;;;;;;;7.88;3.80;;;4.50;99.90;;;;;;4917048;29;20139;-66
2023/12/17 11:46:46;;;;;;;9.77;3.95;;;4.50;99.90;;;;;;4916122;29;20047;-65
2023/12/17 11:49:22;;;;;;;16.58;7.15;;;4.50;99.90;;;;;;4915938;29;20046;-65
2023/12/17 11:51:53;;;;;;;10.15;4.97;;;4.60;99.90;;;;;;4915244;29;20490;-65
2023/12/17 11:54:21;;;;;;;9.27;4.22;;;4.60;99.90;;;;;;4916561;29;20080;-65
2023/12/17 11:56:51;;;;;;;6.70;4.10;;;4.70;99.90;;;;;;4911249;29;20499;-66
2023/12/17 11:59:34;;;;;;;8.48;4.63;;;4.80;99.90;;;;;;4904823;29;20502;-65
2023/12/17 12:02:02;;;;;;;8.25;3.92;;;4.90;99.90;;;;;;4918221;29;20494;-65
2023/12/17 12:04:42;;;;;;;8.50;4.10;;;5.00;99.90;;;;;;4918583;29;20062;-65
2023/12/17 12:07:11;;;;;;;14.23;6.30;;;4.90;99.90;;;;;;4911117;29;20135;-65
2023/12/17 12:09:38;;;;;;;5.85;3.28;;;4.90;99.90;;;;;;4915986;29;20044;-65
2023/12/17 12:12:18;;;;;;;;;;;4.80;99.90;;;;;;4916870;29;20040;-65
2023/12/17 12:14:47;;;;;;;6.00;3.15;;;4.90;99.90;;;;;;4907295;29;19930;-65
2023/12/17 12:17:37;;;;;;;8.75;3.60;;;4.90;99.90;;;;;;4915926;29;20058;-65
2023/12/17 12:20:09;;;;;;;6.32;3.10;;;5.00;99.90;;;;;;4915743;29;20052;-65
2023/12/17 12:22:38;;;;;;;5.40;2.90;;;5.00;99.90;;;;;;4913922;29;20420;-65
2023/12/17 12:25:05;;;;;;;7.60;3.38;;;5.10;99.90;;;;;;4917511;29;20050;-66
2023/12/17 12:27:32;;;;;;;;;;;5.10;99.90;;;;;;4911715;29;20051;-65
2023/12/17 12:29:59;;;;;;;7.55;3.20;;;5.10;99.90;;;;;;4907822;29;19927;-65
2023/12/17 12:32:33;;;;;;;6.65;3.00;;;5.10;99.90;;;;;;4915650;29;20036;-65
2023/12/17 12:35:01;;;;;;;7.60;2.88;;;5.20;99.90;;;;;;4898770;29;20175;-65
2023/12/17 12:37:31;;;;;;;;;;;5.20;99.90;;;;;;4910158;29;20067;-66
2023/12/17 12:39:58;;;;;;;6.55;3.47;;;5.20;99.90;;;;;;4905132;29;19934;-66
2023/12/17 12:42:34;;;;;;;10.45;3.25;;;5.20;99.90;;;;;;4899453;29;20036;-66
2023/12/17 12:45:01;;;;;;;5.05;2.83;;;5.20;99.90;;;;;;4914034;29;20517;-66
2023/12/17 12:47:28;;;;;;;5.57;2.50;;;5.20;99.90;;;;;;4915687;29;20051;-65
2023/12/17 12:49:55;;;;;;;8.10;3.17;;;5.20;99.90;;;;;;4914508;29;20044;-65
2023/12/17 12:52:23;;;;;;;6.07;2.85;;;5.20;99.90;;;;;;4914379;29;20131;-66
2023/12/17 12:54:52;;;;;;;;;;;5.30;99.90;;;;;;4915277;29;20054;-65
2023/12/17 12:57:19;;;;;;;4.55;2.25;;;5.20;99.90;;;;;;4905635;29;20025;-66
2023/12/17 12:59:46;;;;;;;;;;;5.20;99.90;;;;;;4914398;29;20048;-66
2023/12/17 13:02:13;;;;;;;3.35;1.95;;;5.20;99.90;;;;;;4915939;29;20353;-66
2023/12/17 13:04:41;;;;;;;2.97;1.90;;;5.30;99.90;;;;;;4913494;29;20054;-66